sensor_id;sensor_type;location;lat;lon;timestamp;pressure;altitude;pressure_sealevel;temperature;humidity
47897;BME280;39629;51.400;5.494;2023-04-25T00:00:34;100956.84;;;5.17;100.00
47897;BME280;39629;51.400;5.494;2023-04-25T00:05:35;100950.75;;;5.18;100.00
47897;BME280;39629;51.400;5.494;2023-04-25T00:10:39;100955.06;;;5.16;100.00
47897;BME280;39629;51.400;5.494;2023-04-25T00:15:40;100964.66;;;5.17;100.00
47897;BME280;39629;51.400;5.494;2023-04-25T00:20:42;100962.09;;;5.20;100.00
47897;BME280;39629;51.400;5.494;2023-04-25T00:25:49;100974.38;;;5.24;100.00
47897;BME280;39629;51.400;5.494;2023-04-25T00:30:51;100971.00;;;5.30;100.00
47897;BME280;39629;51.400;5.494;2023-04-25T00:35:52;100970.97;;;5.28;100.00
47897;BME280;39629;51.400;5.494;2023-04-25T00:40:55;100965.72;;;5.26;100.00
47897;BME280;39629;51.400;5.494;2023-04-25T00:45:59;100962.22;;;5.26;100.00
47897;BME280;39629;51.400;5.494;2023-04-25T00:51:01;100958.56;;;5.18;100.00
47897;BME280;39629;51.400;5.494;2023-04-25T00:56:04;100966.22;;;5.08;100.00
47897;BME280;39629;51.400;5.494;2023-04-25T01:01:06;100960.00;;;5.03;100.00
47897;BME280;39629;51.400;5.494;2023-04-25T01:06:09;100967.72;;;4.97;100.00
47897;BME280;39629;51.400;5.494;2023-04-25T01:11:12;100963.34;;;4.96;100.00
47897;BME280;39629;51.400;5.494;2023-04-25T01:16:14;100963.31;;;4.94;100.00
47897;BME280;39629;51.400;5.494;2023-04-25T01:21:17;100962.44;;;4.96;100.00
47897;BME280;39629;51.400;5.494;2023-04-25T01:26:21;100971.09;;;4.93;100.00
47897;BME280;39629;51.400;5.494;2023-04-25T01:31:24;100975.06;;;4.77;100.00
47897;BME280;39629;51.400;5.494;2023-04-25T01:36:28;100962.56;;;4.62;100.00
47897;BME280;39629;51.400;5.494;2023-04-25T01:41:29;100968.38;;;4.50;100.00
47897;BME280;39629;51.400;5.494;2023-04-25T01:46:31;100969.13;;;4.45;100.00
47897;BME280;39629;51.400;5.494;2023-04-25T01:51:34;100973.22;;;4.35;100.00
47897;BME280;39629;51.400;5.494;2023-04-25T01:56:36;100976.44;;;4.24;100.00
47897;BME280;39629;51.400;5.494;2023-04-25T02:01:40;100984.16;;;4.21;100.00
47897;BME280;39629;51.400;5.494;2023-04-25T02:06:52;100990.13;;;4.17;100.00
47897;BME280;39629;51.400;5.494;2023-04-25T02:11:55;100992.75;;;4.17;100.00
47897;BME280;39629;51.400;5.494;2023-04-25T02:17:26;100996.22;;;4.18;100.00
47897;BME280;39629;51.400;5.494;2023-04-25T02:22:29;100997.09;;;4.17;100.00
47897;BME280;39629;51.400;5.494;2023-04-25T02:27:31;100993.81;;;4.25;100.00
47897;BME280;39629;51.400;5.494;2023-04-25T02:32:33;101008.66;;;4.28;100.00
47897;BME280;39629;51.400;5.494;2023-04-25T02:37:38;100999.59;;;4.47;100.00
47897;BME280;39629;51.400;5.494;2023-04-25T02:42:40;100994.28;;;4.44;100.00
47897;BME280;39629;51.400;5.494;2023-04-25T02:47:42;101004.13;;;4.56;100.00
47897;BME280;39629;51.400;5.494;2023-04-25T02:52:46;101003.09;;;4.49;100.00
47897;BME280;39629;51.400;5.494;2023-04-25T02:57:56;100997.78;;;4.45;100.00
47897;BME280;39629;51.400;5.494;2023-04-25T03:03:10;100998.09;;;4.57;100.00
47897;BME280;39629;51.400;5.494;2023-04-25T03:08:13;100991.81;;;4.49;100.00
47897;BME280;39629;51.400;5.494;2023-04-25T03:13:15;100996.94;;;4.46;100.00
47897;BME280;39629;51.400;5.494;2023-04-25T03:18:17;101006.53;;;4.48;100.00
47897;BME280;39629;51.400;5.494;2023-04-25T03:23:20;101005.59;;;4.45;100.00
47897;BME280;39629;51.400;5.494;2023-04-25T03:28:22;101010.88;;;4.48;100.00
47897;BME280;39629;51.400;5.494;2023-04-25T03:33:24;101018.06;;;4.58;100.00
47897;BME280;39629;51.400;5.494;2023-04-25T03:38:27;101009.59;;;4.65;100.00
47897;BME280;39629;51.400;5.494;2023-04-25T03:43:29;101016.22;;;4.54;100.00
47897;BME280;39629;51.400;5.494;2023-04-25T03:48:37;101012.06;;;4.60;100.00
47897;BME280;39629;51.400;5.494;2023-04-25T03:53:40;101009.75;;;4.73;100.00
47897;BME280;39629;51.400;5.494;2023-04-25T03:58:55;101018.06;;;4.58;100.00
47897;BME280;39629;51.400;5.494;2023-04-25T04:03:59;101016.41;;;4.60;100.00
47897;BME280;39629;51.400;5.494;2023-04-25T04:09:03;101034.69;;;4.62;100.00
47897;BME280;39629;51.400;5.494;2023-04-25T04:14:08;101024.31;;;4.65;100.00
47897;BME280;39629;51.400;5.494;2023-04-25T04:19:15;101027.75;;;4.64;100.00
47897;BME280;39629;51.400;5.494;2023-04-25T04:24:29;101029.66;;;4.69;100.00
47897;BME280;39629;51.400;5.494;2023-04-25T04:29:37;101039.16;;;4.67;100.00
47897;BME280;39629;51.400;5.494;2023-04-25T04:35:06;101040.13;;;4.71;100.00
47897;BME280;39629;51.400;5.494;2023-04-25T04:40:11;101046.38;;;4.78;100.00
47897;BME280;39629;51.400;5.494;2023-04-25T04:45:36;101056.00;;;4.82;100.00
47897;BME280;39629;51.400;5.494;2023-04-25T04:50:44;101056.16;;;4.88;100.00
47897;BME280;39629;51.400;5.494;2023-04-25T04:56:00;101052.88;;;4.97;100.00
47897;BME280;39629;51.400;5.494;2023-04-25T05:01:09;101062.72;;;5.07;100.00
47897;BME280;39629;51.400;5.494;2023-04-25T05:06:30;101068.16;;;5.18;100.00
47897;BME280;39629;51.400;5.494;2023-04-25T05:11:52;101077.13;;;5.29;100.00
47897;BME280;39629;51.400;5.494;2023-04-25T05:17:12;101090.22;;;5.31;100.00
47897;BME280;39629;51.400;5.494;2023-04-25T05:22:33;101104.16;;;5.33;100.00
47897;BME280;39629;51.400;5.494;2023-04-25T05:27:47;101106.31;;;5.52;100.00
47897;BME280;39629;51.400;5.494;2023-04-25T05:33:08;101107.81;;;6.23;100.00
47897;BME280;39629;51.400;5.494;2023-04-25T05:38:09;101104.97;;;6.12;100.00
47897;BME280;39629;51.400;5.494;2023-04-25T05:43:41;101113.75;;;6.18;100.00
47897;BME280;39629;51.400;5.494;2023-04-25T05:49:12;101126.47;;;6.43;100.00
47897;BME280;39629;51.400;5.494;2023-04-25T05:54:38;101127.69;;;6.59;100.00
47897;BME280;39629;51.400;5.494;2023-04-25T05:59:41;101128.66;;;6.66;100.00
47897;BME280;39629;51.400;5.494;2023-04-25T06:04:43;101133.72;;;6.57;100.00
47897;BME280;39629;51.400;5.494;2023-04-25T06:09:45;101138.13;;;6.59;100.00
47897;BME280;39629;51.400;5.494;2023-04-25T06:14:48;101132.31;;;6.77;100.00
47897;BME280;39629;51.400;5.494;2023-04-25T06:19:49;101142.03;;;6.83;100.00
47897;BME280;39629;51.400;5.494;2023-04-25T06:24:51;101146.66;;;6.99;100.00
47897;BME280;39629;51.400;5.494;2023-04-25T06:29:54;101152.78;;;7.00;100.00
47897;BME280;39629;51.400;5.494;2023-04-25T06:34:56;101149.41;;;7.64;100.00
47897;BME280;39629;51.400;5.494;2023-04-25T06:39:58;101148.81;;;7.85;100.00
47897;BME280;39629;51.400;5.494;2023-04-25T06:45:01;101165.56;;;7.98;100.00
47897;BME280;39629;51.400;5.494;2023-04-25T06:50:04;101166.88;;;8.34;100.00
47897;BME280;39629;51.400;5.494;2023-04-25T06:55:09;101172.25;;;7.74;100.00
47897;BME280;39629;51.400;5.494;2023-04-25T07:00:31;101176.69;;;7.80;100.00
47897;BME280;39629;51.400;5.494;2023-04-25T07:05:33;101171.66;;;8.69;100.00
47897;BME280;39629;51.400;5.494;2023-04-25T07:10:35;101170.69;;;9.64;100.00
47897;BME280;39629;51.400;5.494;2023-04-25T07:15:39;101182.50;;;9.06;100.00
47897;BME280;39629;51.400;5.494;2023-04-25T07:20:41;101188.91;;;9.36;100.00
47897;BME280;39629;51.400;5.494;2023-04-25T07:25:42;101194.03;;;9.22;100.00
47897;BME280;39629;51.400;5.494;2023-04-25T07:30:47;101196.97;;;9.64;100.00
47897;BME280;39629;51.400;5.494;2023-04-25T07:35:49;101188.09;;;9.49;100.00
47897;BME280;39629;51.400;5.494;2023-04-25T07:40:52;101196.41;;;10.20;100.00
47897;BME280;39629;51.400;5.494;2023-04-25T07:45:56;101199.91;;;10.22;100.00
47897;BME280;39629;51.400;5.494;2023-04-25T07:50:58;101208.66;;;10.12;100.00
47897;BME280;39629;51.400;5.494;2023-04-25T07:56:00;101219.91;;;9.86;100.00
47897;BME280;39629;51.400;5.494;2023-04-25T08:01:07;101215.69;;;10.15;100.00
47897;BME280;39629;51.400;5.494;2023-04-25T08:06:08;101221.22;;;10.90;100.00
47897;BME280;39629;51.400;5.494;2023-04-25T08:11:19;101232.75;;;9.46;100.00
47897;BME280;39629;51.400;5.494;2023-04-25T08:16:23;101232.59;;;10.83;100.00
47897;BME280;39629;51.400;5.494;2023-04-25T08:21:26;101247.63;;;11.55;100.00
47897;BME280;39629;51.400;5.494;2023-04-25T08:26:30;101258.63;;;10.12;100.00
47897;BME280;39629;51.400;5.494;2023-04-25T08:31:34;101254.16;;;10.00;100.00
47897;BME280;39629;51.400;5.494;2023-04-25T08:36:38;101255.72;;;9.70;100.00
47897;BME280;39629;51.400;5.494;2023-04-25T08:41:50;101263.63;;;9.75;100.00
47897;BME280;39629;51.400;5.494;2023-04-25T08:46:55;101278.69;;;8.99;100.00
47897;BME280;39629;51.400;5.494;2023-04-25T08:52:03;101288.69;;;9.33;100.00
47897;BME280;39629;51.400;5.494;2023-04-25T08:57:06;101287.22;;;9.67;100.00
47897;BME280;39629;51.400;5.494;2023-04-25T09:02:10;101300.28;;;9.57;100.00
47897;BME280;39629;51.400;5.494;2023-04-25T09:07:17;101317.94;;;9.73;100.00
47897;BME280;39629;51.400;5.494;2023-04-25T09:12:22;101318.09;;;9.93;100.00
47897;BME280;39629;51.400;5.494;2023-04-25T09:17:25;101326.63;;;9.67;100.00
47897;BME280;39629;51.400;5.494;2023-04-25T09:22:29;101336.63;;;10.12;100.00
47897;BME280;39629;51.400;5.494;2023-04-25T09:27:30;101327.25;;;10.57;100.00
47897;BME280;39629;51.400;5.494;2023-04-25T09:32:47;101341.47;;;10.95;100.00
47897;BME280;39629;51.400;5.494;2023-04-25T09:37:50;101344.28;;;11.93;100.00
47897;BME280;39629;51.400;5.494;2023-04-25T09:43:10;101353.88;;;11.31;100.00
47897;BME280;39629;51.400;5.494;2023-04-25T09:48:21;101362.25;;;10.42;99.48
47897;BME280;39629;51.400;5.494;2023-04-25T09:53:26;101361.66;;;10.89;97.86
47897;BME280;39629;51.400;5.494;2023-04-25T09:58:42;101362.72;;;11.50;98.05
47897;BME280;39629;51.400;5.494;2023-04-25T10:03:47;101367.09;;;11.50;98.93
47897;BME280;39629;51.400;5.494;2023-04-25T10:09:11;101376.75;;;11.49;90.25
47897;BME280;39629;51.400;5.494;2023-04-25T10:14:16;101368.88;;;11.54;83.73
47897;BME280;39629;51.400;5.494;2023-04-25T10:19:19;101360.09;;;12.17;77.37
47897;BME280;39629;51.400;5.494;2023-04-25T10:24:21;101359.19;;;11.48;74.96
47897;BME280;39629;51.400;5.494;2023-04-25T10:29:24;101353.00;;;12.60;74.70
47897;BME280;39629;51.400;5.494;2023-04-25T10:34:39;101352.97;;;12.76;72.32
47897;BME280;39629;51.400;5.494;2023-04-25T10:39:42;101362.72;;;11.80;74.67
47897;BME280;39629;51.400;5.494;2023-04-25T10:45:00;101372.38;;;11.73;76.76
47897;BME280;39629;51.400;5.494;2023-04-25T10:50:08;101373.09;;;10.95;75.70
47897;BME280;39629;51.400;5.494;2023-04-25T10:55:10;101365.34;;;11.55;69.96
47897;BME280;39629;51.400;5.494;2023-04-25T11:00:14;101372.31;;;11.27;67.49
47897;BME280;39629;51.400;5.494;2023-04-25T11:05:22;101371.50;;;11.77;67.94
47897;BME280;39629;51.400;5.494;2023-04-25T11:10:25;101373.25;;;11.47;66.36
47897;BME280;39629;51.400;5.494;2023-04-25T11:15:27;101366.22;;;11.38;68.09
47897;BME280;39629;51.400;5.494;2023-04-25T11:20:30;101371.50;;;11.62;66.89
47897;BME280;39629;51.400;5.494;2023-04-25T11:25:32;101369.72;;;12.38;66.27
47897;BME280;39629;51.400;5.494;2023-04-25T11:30:33;101375.94;;;11.83;64.33
47897;BME280;39629;51.400;5.494;2023-04-25T11:35:36;101382.53;;;10.63;71.67
47897;BME280;39629;51.400;5.494;2023-04-25T11:40:38;101395.47;;;10.26;75.42
47897;BME280;39629;51.400;5.494;2023-04-25T11:45:39;101405.41;;;9.60;80.96
47897;BME280;39629;51.400;5.494;2023-04-25T11:50:43;101419.94;;;9.27;86.00
47897;BME280;39629;51.400;5.494;2023-04-25T11:55:45;101425.94;;;9.16;89.18
47897;BME280;39629;51.400;5.494;2023-04-25T12:00:46;101424.09;;;9.09;91.62
47897;BME280;39629;51.400;5.494;2023-04-25T12:05:49;101424.16;;;9.14;81.67
47897;BME280;39629;51.400;5.494;2023-04-25T12:10:51;101428.50;;;9.92;79.68
47897;BME280;39629;51.400;5.494;2023-04-25T12:15:55;101423.09;;;10.87;77.18
47897;BME280;39629;51.400;5.494;2023-04-25T12:20:58;101424.88;;;10.94;77.16
47897;BME280;39629;51.400;5.494;2023-04-25T12:26:00;101440.41;;;10.52;74.06
47897;BME280;39629;51.400;5.494;2023-04-25T12:31:03;101434.16;;;10.41;72.14
47897;BME280;39629;51.400;5.494;2023-04-25T12:36:07;101431.66;;;10.58;71.61
47897;BME280;39629;51.400;5.494;2023-04-25T12:41:11;101438.25;;;11.45;71.31
47897;BME280;39629;51.400;5.494;2023-04-25T12:46:12;101437.44;;;11.65;72.43
47897;BME280;39629;51.400;5.494;2023-04-25T12:51:15;101427.53;;;11.02;59.58
47897;BME280;39629;51.400;5.494;2023-04-25T12:56:17;101437.22;;;11.09;57.97
47897;BME280;39629;51.400;5.494;2023-04-25T13:01:19;101439.09;;;11.36;55.52
47897;BME280;39629;51.400;5.494;2023-04-25T13:06:22;101441.34;;;10.67;58.01
47897;BME280;39629;51.400;5.494;2023-04-25T13:11:23;101444.16;;;10.88;60.56
47897;BME280;39629;51.400;5.494;2023-04-25T13:16:25;101440.50;;;10.71;59.33
47897;BME280;39629;51.400;5.494;2023-04-25T13:21:29;101454.00;;;11.27;63.58
47897;BME280;39629;51.400;5.494;2023-04-25T13:26:32;101453.66;;;10.65;58.55
47897;BME280;39629;51.400;5.494;2023-04-25T13:31:33;101461.69;;;10.85;58.06
47897;BME280;39629;51.400;5.494;2023-04-25T13:36:36;101464.22;;;10.77;59.43
47897;BME280;39629;51.400;5.494;2023-04-25T13:41:38;101464.09;;;10.54;61.94
47897;BME280;39629;51.400;5.494;2023-04-25T13:46:39;101457.53;;;11.30;61.50
47897;BME280;39629;51.400;5.494;2023-04-25T13:51:42;101459.44;;;11.74;58.28
47897;BME280;39629;51.400;5.494;2023-04-25T13:56:44;101462.81;;;11.41;58.87
47897;BME280;39629;51.400;5.494;2023-04-25T14:01:45;101459.47;;;12.35;55.99
47897;BME280;39629;51.400;5.494;2023-04-25T14:06:48;101465.56;;;11.70;55.32
47897;BME280;39629;51.400;5.494;2023-04-25T14:11:50;101459.44;;;11.85;53.33
47897;BME280;39629;51.400;5.494;2023-04-25T14:16:52;101456.81;;;12.25;55.13
47897;BME280;39629;51.400;5.494;2023-04-25T14:21:55;101457.66;;;11.73;51.83
47897;BME280;39629;51.400;5.494;2023-04-25T14:26:57;101453.31;;;12.74;51.54
47897;BME280;39629;51.400;5.494;2023-04-25T14:31:58;101455.91;;;11.74;53.73
47897;BME280;39629;51.400;5.494;2023-04-25T14:37:02;101456.69;;;11.45;54.67
47897;BME280;39629;51.400;5.494;2023-04-25T14:42:03;101483.03;;;11.40;57.47
47897;BME280;39629;51.400;5.494;2023-04-25T14:47:05;101474.22;;;11.29;58.73
47897;BME280;39629;51.400;5.494;2023-04-25T14:52:08;101472.50;;;11.39;58.66
47897;BME280;39629;51.400;5.494;2023-04-25T14:57:09;101481.69;;;10.60;58.45
47897;BME280;39629;51.400;5.494;2023-04-25T15:02:11;101477.25;;;10.55;59.55
47897;BME280;39629;51.400;5.494;2023-04-25T15:07:14;101479.91;;;10.55;55.76
47897;BME280;39629;51.400;5.494;2023-04-25T15:12:16;101474.06;;;11.03;51.96
47897;BME280;39629;51.400;5.494;2023-04-25T15:17:17;101465.03;;;10.61;52.91
47897;BME280;39629;51.400;5.494;2023-04-25T15:22:20;101478.31;;;10.84;52.92
47897;BME280;39629;51.400;5.494;2023-04-25T15:27:22;101471.34;;;10.84;60.86
47897;BME280;39629;51.400;5.494;2023-04-25T15:32:24;101485.63;;;11.30;56.80
47897;BME280;39629;51.400;5.494;2023-04-25T15:37:27;101495.06;;;10.87;53.92
47897;BME280;39629;51.400;5.494;2023-04-25T15:42:29;101492.28;;;10.72;52.24
47897;BME280;39629;51.400;5.494;2023-04-25T15:47:30;101502.53;;;10.36;53.48
47897;BME280;39629;51.400;5.494;2023-04-25T15:52:34;101505.88;;;10.18;55.31
47897;BME280;39629;51.400;5.494;2023-04-25T15:57:36;101515.56;;;10.24;59.06
47897;BME280;39629;51.400;5.494;2023-04-25T16:02:37;101517.09;;;10.00;60.65
47897;BME280;39629;51.400;5.494;2023-04-25T16:07:42;101526.63;;;9.91;60.74
47897;BME280;39629;51.400;5.494;2023-04-25T16:12:44;101517.25;;;10.17;58.74
47897;BME280;39629;51.400;5.494;2023-04-25T16:17:47;101527.59;;;9.96;60.26
47897;BME280;39629;51.400;5.494;2023-04-25T16:22:50;101523.06;;;9.85;59.75
47897;BME280;39629;51.400;5.494;2023-04-25T16:27:51;101526.78;;;10.06;59.42
47897;BME280;39629;51.400;5.494;2023-04-25T16:32:53;101524.13;;;10.00;61.13
47897;BME280;39629;51.400;5.494;2023-04-25T16:37:57;101532.59;;;9.76;57.38
47897;BME280;39629;51.400;5.494;2023-04-25T16:42:59;101531.34;;;10.24;56.01
47897;BME280;39629;51.400;5.494;2023-04-25T16:48:01;101532.75;;;9.89;56.83
47897;BME280;39629;51.400;5.494;2023-04-25T16:53:04;101536.88;;;9.66;56.98
47897;BME280;39629;51.400;5.494;2023-04-25T16:58:05;101535.19;;;9.73;58.03
47897;BME280;39629;51.400;5.494;2023-04-25T17:03:07;101538.84;;;9.85;57.44
47897;BME280;39629;51.400;5.494;2023-04-25T17:08:10;101537.00;;;9.78;59.24
47897;BME280;39629;51.400;5.494;2023-04-25T17:13:12;101550.25;;;9.18;61.24
47897;BME280;39629;51.400;5.494;2023-04-25T17:18:13;101563.72;;;8.83;62.89
47897;BME280;39629;51.400;5.494;2023-04-25T17:23:16;101566.56;;;8.96;62.50
47897;BME280;39629;51.400;5.494;2023-04-25T17:28:19;101563.28;;;9.11;61.82
47897;BME280;39629;51.400;5.494;2023-04-25T17:33:20;101575.75;;;9.26;63.34
47897;BME280;39629;51.400;5.494;2023-04-25T17:38:27;101567.81;;;9.23;61.33
47897;BME280;39629;51.400;5.494;2023-04-25T17:43:29;101571.44;;;9.31;62.40
47897;BME280;39629;51.400;5.494;2023-04-25T17:48:32;101577.25;;;9.07;62.51
47897;BME280;39629;51.400;5.494;2023-04-25T17:53:35;101586.56;;;8.91;62.51
47897;BME280;39629;51.400;5.494;2023-04-25T17:58:36;101590.59;;;8.70;62.06
47897;BME280;39629;51.400;5.494;2023-04-25T18:03:38;101598.22;;;8.55;62.28
47897;BME280;39629;51.400;5.494;2023-04-25T18:08:45;101598.00;;;8.42;62.78
47897;BME280;39629;51.400;5.494;2023-04-25T18:13:47;101602.06;;;8.25;63.07
47897;BME280;39629;51.400;5.494;2023-04-25T18:18:48;101606.81;;;8.00;62.05
47897;BME280;39629;51.400;5.494;2023-04-25T18:23:53;101628.25;;;7.80;65.79
47897;BME280;39629;51.400;5.494;2023-04-25T18:28:54;101630.44;;;7.60;69.49
47897;BME280;39629;51.400;5.494;2023-04-25T18:33:56;101638.91;;;7.48;71.70
47897;BME280;39629;51.400;5.494;2023-04-25T18:38:59;101634.19;;;7.32;73.70
47897;BME280;39629;51.400;5.494;2023-04-25T18:44:02;101647.97;;;7.25;74.37
47897;BME280;39629;51.400;5.494;2023-04-25T18:49:04;101646.59;;;7.04;76.92
47897;BME280;39629;51.400;5.494;2023-04-25T18:54:07;101654.22;;;6.95;78.33
47897;BME280;39629;51.400;5.494;2023-04-25T18:59:10;101660.22;;;6.91;76.03
47897;BME280;39629;51.400;5.494;2023-04-25T19:04:11;101665.91;;;6.74;78.10
47897;BME280;39629;51.400;5.494;2023-04-25T19:09:14;101666.28;;;6.56;81.77
47897;BME280;39629;51.400;5.494;2023-04-25T19:14:16;101655.75;;;6.53;77.32
47897;BME280;39629;51.400;5.494;2023-04-25T19:19:17;101667.97;;;6.53;75.96
47897;BME280;39629;51.400;5.494;2023-04-25T19:24:20;101691.19;;;6.43;76.28
47897;BME280;39629;51.400;5.494;2023-04-25T19:29:22;101680.59;;;6.37;73.78
47897;BME280;39629;51.400;5.494;2023-04-25T19:34:23;101697.53;;;6.21;76.63
47897;BME280;39629;51.400;5.494;2023-04-25T19:39:26;101696.63;;;6.19;75.54
47897;BME280;39629;51.400;5.494;2023-04-25T19:44:28;101698.56;;;5.96;79.63
47897;BME280;39629;51.400;5.494;2023-04-25T19:49:30;101706.16;;;5.88;81.51
47897;BME280;39629;51.400;5.494;2023-04-25T19:54:33;101708.34;;;5.74;83.19
47897;BME280;39629;51.400;5.494;2023-04-25T19:59:34;101708.91;;;5.64;84.84
47897;BME280;39629;51.400;5.494;2023-04-25T20:04:36;101715.47;;;5.51;87.82
47897;BME280;39629;51.400;5.494;2023-04-25T20:09:39;101717.91;;;5.47;89.05
47897;BME280;39629;51.400;5.494;2023-04-25T20:14:41;101719.44;;;5.40;90.01
47897;BME280;39629;51.400;5.494;2023-04-25T20:19:44;101727.91;;;5.33;93.02
47897;BME280;39629;51.400;5.494;2023-04-25T20:24:47;101724.94;;;5.22;97.64
47897;BME280;39629;51.400;5.494;2023-04-25T20:29:48;101725.47;;;5.11;100.00
47897;BME280;39629;51.400;5.494;2023-04-25T20:34:50;101732.38;;;5.09;100.00
47897;BME280;39629;51.400;5.494;2023-04-25T20:39:53;101729.44;;;5.00;100.00
47897;BME280;39629;51.400;5.494;2023-04-25T20:44:54;101729.31;;;4.71;100.00
47897;BME280;39629;51.400;5.494;2023-04-25T20:49:56;101734.25;;;4.64;100.00
47897;BME280;39629;51.400;5.494;2023-04-25T20:54:59;101728.22;;;4.65;100.00
47897;BME280;39629;51.400;5.494;2023-04-25T21:00:01;101738.44;;;4.58;100.00
47897;BME280;39629;51.400;5.494;2023-04-25T21:05:16;101740.53;;;4.45;100.00
47897;BME280;39629;51.400;5.494;2023-04-25T21:10:19;101736.03;;;4.40;100.00
47897;BME280;39629;51.400;5.494;2023-04-25T21:15:21;101739.16;;;4.32;100.00
47897;BME280;39629;51.400;5.494;2023-04-25T21:20:23;101737.81;;;4.41;100.00
47897;BME280;39629;51.400;5.494;2023-04-25T21:25:26;101747.72;;;4.28;100.00
47897;BME280;39629;51.400;5.494;2023-04-25T21:30:30;101745.22;;;4.08;100.00
47897;BME280;39629;51.400;5.494;2023-04-25T21:35:32;101756.31;;;4.02;100.00
47897;BME280;39629;51.400;5.494;2023-04-25T21:40:36;101764.59;;;3.92;100.00
47897;BME280;39629;51.400;5.494;2023-04-25T21:45:37;101749.19;;;3.98;100.00
47897;BME280;39629;51.400;5.494;2023-04-25T21:50:39;101758.84;;;3.78;100.00
47897;BME280;39629;51.400;5.494;2023-04-25T21:55:42;101760.84;;;3.63;100.00
47897;BME280;39629;51.400;5.494;2023-04-25T22:00:44;101761.28;;;3.52;100.00
47897;BME280;39629;51.400;5.494;2023-04-25T22:05:45;101754.97;;;3.46;100.00
47897;BME280;39629;51.400;5.494;2023-04-25T22:10:48;101766.06;;;3.42;100.00
47897;BME280;39629;51.400;5.494;2023-04-25T22:15:51;101762.69;;;3.23;100.00
47897;BME280;39629;51.400;5.494;2023-04-25T22:20:53;101766.94;;;3.21;100.00
47897;BME280;39629;51.400;5.494;2023-04-25T22:25:56;101761.88;;;3.24;100.00
47897;BME280;39629;51.400;5.494;2023-04-25T22:30:57;101769.91;;;3.30;100.00
47897;BME280;39629;51.400;5.494;2023-04-25T22:35:59;101782.91;;;3.09;100.00
47897;BME280;39629;51.400;5.494;2023-04-25T22:41:02;101777.53;;;3.04;100.00
47897;BME280;39629;51.400;5.494;2023-04-25T22:46:04;101784.78;;;2.92;100.00
47897;BME280;39629;51.400;5.494;2023-04-25T22:51:06;101789.38;;;2.78;100.00
47897;BME280;39629;51.400;5.494;2023-04-25T22:56:09;101792.31;;;2.66;100.00
47897;BME280;39629;51.400;5.494;2023-04-25T23:01:11;101803.94;;;2.55;100.00
47897;BME280;39629;51.400;5.494;2023-04-25T23:06:12;101804.41;;;2.46;100.00
47897;BME280;39629;51.400;5.494;2023-04-25T23:11:15;101805.69;;;2.36;100.00
47897;BME280;39629;51.400;5.494;2023-04-25T23:16:16;101809.44;;;2.24;100.00
47897;BME280;39629;51.400;5.494;2023-04-25T23:21:18;101815.22;;;2.18;100.00
47897;BME280;39629;51.400;5.494;2023-04-25T23:26:22;101808.50;;;2.03;100.00
47897;BME280;39629;51.400;5.494;2023-04-25T23:31:23;101813.09;;;1.91;100.00
47897;BME280;39629;51.400;5.494;2023-04-25T23:36:25;101806.63;;;1.83;100.00
47897;BME280;39629;51.400;5.494;2023-04-25T23:41:28;101806.13;;;1.72;100.00
47897;BME280;39629;51.400;5.494;2023-04-25T23:46:30;101798.63;;;1.60;100.00
47897;BME280;39629;51.400;5.494;2023-04-25T23:51:31;101794.22;;;1.41;100.00
47897;BME280;39629;51.400;5.494;2023-04-25T23:56:34;101788.16;;;1.41;100.00
